Time;durP1;ratioP1;P1;durP2;ratioP2;P2;SDS_P1;SDS_P2;PMS_P1;PMS_P2;Temp;Humidity;BMP_temperature;BMP_pressure;BME280_temperature;BME280_humidity;BME280_pressure;Samples;Min_cycle;Max_cycle;Signal;HPM_P1;HPM_P2
2021/10/15 00:02:18;;;;;;;6.10;3.17;;;4.70;96.00;;;;;;6249398;23;20011;-68
2021/10/15 00:04:44;;;;;;;8.88;4.07;;;4.80;96.30;;;;;;6222574;23;20031;-69
2021/10/15 00:07:10;;;;;;;5.97;3.22;;;4.80;97.60;;;;;;6223022;23;20004;-69
2021/10/15 00:09:36;;;;;;;6.32;2.90;;;4.60;97.30;;;;;;6249200;23;20000;-68
2021/10/15 00:12:03;;;;;;;8.73;3.13;;;4.60;97.80;;;;;;6247862;23;20007;-68
2021/10/15 00:14:29;;;;;;;5.20;2.80;;;4.40;97.70;;;;;;6223089;23;20015;-69
2021/10/15 00:16:55;;;;;;;9.32;3.05;;;4.70;95.40;;;;;;6222589;23;20370;-69
2021/10/15 00:19:21;;;;;;;5.63;3.00;;;4.80;97.50;;;;;;6249299;23;19996;-68
2021/10/15 00:21:47;;;;;;;6.18;3.05;;;4.60;97.10;;;;;;6223220;23;20054;-69
2021/10/15 00:24:13;;;;;;;4.88;2.58;;;4.50;98.00;;;;;;6249405;23;19996;-68
2021/10/15 00:26:39;;;;;;;5.90;2.53;;;4.40;97.10;;;;;;6221969;23;20012;-69
2021/10/15 00:29:08;;;;;;;5.95;3.00;;;4.50;95.80;;;;;;6250255;23;20011;-68
2021/10/15 00:31:34;;;;;;;5.50;2.40;;;4.80;95.90;;;;;;6249094;23;20008;-68
2021/10/15 00:34:00;;;;;;;4.00;2.00;;;5.00;95.70;;;;;;6249449;23;20243;-68
2021/10/15 00:36:26;;;;;;;5.05;2.50;;;5.20;96.90;;;;;;6249565;23;20011;-68
2021/10/15 00:38:52;;;;;;;5.03;2.47;;;5.20;97.40;;;;;;6222400;23;20008;-68
2021/10/15 00:41:18;;;;;;;4.78;2.30;;;5.30;98.00;;;;;;6222061;23;20023;-68
2021/10/15 00:44:04;;;;;;;5.47;2.30;;;5.30;98.00;;;;;;6247598;23;20342;-69
2021/10/15 00:46:31;;;;;;;5.05;2.40;;;5.30;98.00;;;;;;6248607;23;20000;-69
2021/10/15 00:48:58;;;;;;;5.82;2.20;;;5.20;98.00;;;;;;6249208;23;20079;-68
2021/10/15 00:51:25;;;;;;;3.88;2.10;;;5.10;98.00;;;;;;6248614;23;20004;-69
2021/10/15 00:53:51;;;;;;;4.05;2.33;;;4.90;98.00;;;;;;6248942;23;19996;-68
2021/10/15 00:56:17;;;;;;;4.82;2.17;;;5.00;97.90;;;;;;6249570;23;20000;-68
2021/10/15 00:58:43;;;;;;;5.75;2.25;;;5.10;98.00;;;;;;6247915;23;20031;-70
2021/10/15 01:01:12;;;;;;;6.47;2.40;;;4.90;98.00;;;;;;6249176;23;20031;-70
2021/10/15 01:03:37;;;;;;;3.58;2.10;;;4.90;98.00;;;;;;6248636;23;20000;-70
2021/10/15 01:06:04;;;;;;;4.07;2.15;;;4.70;98.00;;;;;;6222766;23;20028;-70
2021/10/15 01:08:29;;;;;;;4.07;2.28;;;4.80;97.70;;;;;;6248905;23;20008;-70
2021/10/15 01:10:55;;;;;;;3.60;1.83;;;4.80;98.00;;;;;;6248857;23;20011;-70
2021/10/15 01:13:25;;;;;;;6.43;2.20;;;4.90;97.90;;;;;;6247466;23;20004;-70
2021/10/15 01:15:51;;;;;;;4.95;1.90;;;4.90;98.00;;;;;;6248643;23;20007;-71
2021/10/15 01:18:17;;;;;;;4.72;2.17;;;4.80;98.00;;;;;;6222057;23;20083;-71
2021/10/15 01:20:42;;;;;;;3.55;1.90;;;4.90;98.00;;;;;;6249404;23;20024;-71
2021/10/15 01:23:08;;;;;;;3.22;1.77;;;4.80;98.00;;;;;;6248708;23;19997;-70
2021/10/15 01:25:36;;;;;;;3.63;1.60;;;4.70;98.00;;;;;;6222602;23;20004;-71
2021/10/15 01:28:02;;;;;;;5.63;1.98;;;4.70;98.00;;;;;;6247570;23;20007;-71
2021/10/15 01:30:29;;;;;;;3.92;1.90;;;4.60;98.00;;;;;;6248805;23;20085;-71
2021/10/15 01:32:54;;;;;;;4.47;2.13;;;4.60;98.00;;;;;;6248981;23;20015;-71
2021/10/15 01:35:20;;;;;;;4.82;1.95;;;4.80;97.80;;;;;;6248800;23;20000;-71
2021/10/15 01:37:48;;;;;;;3.08;1.80;;;5.00;98.00;;;;;;6249022;23;20046;-70
2021/10/15 01:40:14;;;;;;;4.13;2.10;;;5.10;98.00;;;;;;6249058;23;19992;-70
2021/10/15 01:42:54;;;;;;;4.50;1.95;;;5.20;98.00;;;;;;6247407;23;20062;-70
2021/10/15 01:45:25;;;;;;;3.75;1.63;;;5.20;98.00;;;;;;6222382;23;20054;-71
2021/10/15 01:47:51;;;;;;;6.95;1.98;;;5.10;98.00;;;;;;6248035;23;20050;-71
2021/10/15 01:50:22;;;;;;;4.35;1.77;;;5.20;98.00;;;;;;6249008;23;20004;-71
2021/10/15 01:52:48;;;;;;;3.80;1.80;;;5.20;98.00;;;;;;6248918;23;20004;-71
2021/10/15 01:55:14;;;;;;;5.35;2.40;;;5.10;98.00;;;;;;6222641;23;20000;-70
2021/10/15 01:57:40;;;;;;;4.00;2.10;;;5.00;98.00;;;;;;6220819;23;20004;-71
2021/10/15 02:00:09;;;;;;;4.78;2.33;;;4.90;98.00;;;;;;6248748;23;20024;-71
2021/10/15 02:02:35;;;;;;;4.05;2.15;;;4.80;98.00;;;;;;6248567;23;20000;-71
2021/10/15 02:05:01;;;;;;;4.35;2.20;;;4.70;98.00;;;;;;6222395;23;20011;-70
2021/10/15 02:07:29;;;;;;;4.30;1.80;;;4.80;98.00;;;;;;6248380;23;20000;-70
2021/10/15 02:09:55;;;;;;;3.25;1.83;;;4.90;98.00;;;;;;6248584;23;20004;-70
2021/10/15 02:12:21;;;;;;;3.95;1.63;;;5.00;98.00;;;;;;6246834;23;20362;-70
2021/10/15 02:14:46;;;;;;;4.57;2.10;;;5.00;98.00;;;;;;6248668;23;20000;-70
2021/10/15 02:17:12;;;;;;;5.07;1.98;;;4.90;98.00;;;;;;6248706;23;20313;-71
2021/10/15 02:19:38;;;;;;;4.82;2.30;;;4.80;98.00;;;;;;6248598;23;20067;-71
2021/10/15 02:22:12;;;;;;;6.30;2.22;;;4.70;98.00;;;;;;6248544;23;19996;-71
2021/10/15 02:24:38;;;;;;;4.13;2.00;;;4.80;98.00;;;;;;6248956;23;20266;-70
2021/10/15 02:27:04;;;;;;;4.70;2.20;;;4.90;98.00;;;;;;6247366;23;20004;-71
2021/10/15 02:29:30;;;;;;;4.63;1.88;;;4.90;98.00;;;;;;6248968;23;20079;-71
2021/10/15 02:31:56;;;;;;;4.47;2.30;;;4.90;98.00;;;;;;6250632;23;20257;-71
2021/10/15 02:34:21;;;;;;;3.63;2.20;;;5.00;98.00;;;;;;6250751;23;20000;-71
2021/10/15 02:36:47;;;;;;;3.85;1.60;;;5.00;98.00;;;;;;6250657;23;20003;-70
2021/10/15 02:39:13;;;;;;;4.15;2.00;;;5.10;98.00;;;;;;6250304;23;20316;-70
2021/10/15 02:41:43;;;;;;;3.63;1.90;;;5.10;98.00;;;;;;6250279;23;20282;-70
2021/10/15 02:44:11;;;;;;;2.92;1.70;;;5.10;98.00;;;;;;6249621;23;20182;-70
2021/10/15 02:46:37;;;;;;;2.53;1.60;;;5.10;98.00;;;;;;6250738;23;20012;-70
2021/10/15 02:49:04;;;;;;;3.58;1.80;;;5.10;98.00;;;;;;6223221;23;20011;-72
2021/10/15 02:51:30;;;;;;;5.25;2.30;;;5.10;98.00;;;;;;6250324;23;20027;-72
2021/10/15 02:53:56;;;;;;;4.95;2.40;;;5.00;98.00;;;;;;6223926;23;20334;-71
2021/10/15 02:56:22;;;;;;;4.07;2.33;;;4.80;98.00;;;;;;6250693;23;20050;-71
2021/10/15 02:58:48;;;;;;;5.63;2.63;;;4.70;98.00;;;;;;6249442;23;20039;-71
2021/10/15 03:01:14;;;;;;;4.85;1.95;;;4.80;98.00;;;;;;6250161;23;20008;-71
2021/10/15 03:03:42;;;;;;;3.45;1.80;;;4.80;98.00;;;;;;6250234;23;20000;-71
2021/10/15 03:06:11;;;;;;;4.40;2.10;;;4.90;98.00;;;;;;6250617;23;20004;-72
2021/10/15 03:08:37;;;;;;;4.22;2.15;;;4.90;98.00;;;;;;6250273;23;20019;-71
2021/10/15 03:11:03;;;;;;;4.53;2.15;;;4.70;98.00;;;;;;6250156;23;20000;-71
2021/10/15 03:13:29;;;;;;;5.45;2.40;;;4.60;98.00;;;;;;6248307;23;20053;-70
2021/10/15 03:15:54;;;;;;;3.53;1.90;;;4.70;98.00;;;;;;6223339;23;20000;-70
2021/10/15 03:18:20;;;;;;;5.78;2.38;;;4.70;98.00;;;;;;6250386;23;20078;-72
2021/10/15 03:20:46;;;;;;;5.45;2.08;;;4.80;98.00;;;;;;6250470;23;19996;-72
2021/10/15 03:23:15;;;;;;;4.38;2.78;;;4.70;98.00;;;;;;6250161;23;19996;-72
2021/10/15 03:25:40;;;;;;;4.25;2.35;;;4.70;98.00;;;;;;6250130;23;20006;-71
2021/10/15 03:28:07;;;;;;;4.65;2.45;;;4.70;98.00;;;;;;6222090;23;20004;-70
2021/10/15 03:30:35;;;;;;;4.43;1.90;;;4.60;98.00;;;;;;6250309;23;20004;-71
2021/10/15 03:33:03;;;;;;;4.78;1.92;;;4.60;98.00;;;;;;6250371;23;20002;-70
2021/10/15 03:35:31;;;;;;;4.65;2.17;;;4.70;98.00;;;;;;6249819;23;20031;-70
2021/10/15 03:37:57;;;;;;;6.22;3.35;;;4.60;98.00;;;;;;6249955;23;20415;-70
2021/10/15 03:40:23;;;;;;;5.38;2.42;;;4.50;98.00;;;;;;6249167;23;20004;-70
2021/10/15 03:42:48;;;;;;;4.50;2.35;;;4.60;98.00;;;;;;6248547;23;20008;-72
2021/10/15 03:45:14;;;;;;;5.50;2.42;;;4.50;98.00;;;;;;6249448;23;20000;-71
2021/10/15 03:47:40;;;;;;;4.45;2.13;;;4.40;98.00;;;;;;6249771;23;20452;-72
2021/10/15 03:50:08;;;;;;;9.32;4.43;;;4.30;98.00;;;;;;6249755;23;20079;-71
2021/10/15 03:52:35;;;;;;;23.38;9.68;;;4.20;98.00;;;;;;6249759;23;20012;-70
2021/10/15 03:55:09;;;;;;;16.83;7.95;;;4.10;98.00;;;;;;6223647;23;20381;-71
2021/10/15 03:57:35;;;;;;;9.00;5.20;;;3.90;98.00;;;;;;6248337;23;20301;-70
2021/10/15 04:00:04;;;;;;;5.50;3.30;;;3.80;98.00;;;;;;6250004;23;19996;-70
2021/10/15 04:02:29;;;;;;;6.47;3.45;;;3.70;98.00;;;;;;6249661;23;20058;-72
2021/10/15 04:04:55;;;;;;;8.68;3.85;;;3.60;98.00;;;;;;6249265;23;20008;-71
2021/10/15 04:07:23;;;;;;;7.30;4.18;;;3.50;98.00;;;;;;6249654;23;20074;-71
2021/10/15 04:09:49;;;;;;;5.65;3.28;;;3.50;98.00;;;;;;6249321;23;20031;-70
2021/10/15 04:12:15;;;;;;;4.15;2.13;;;3.30;98.00;;;;;;6247976;23;20050;-71
2021/10/15 04:14:40;;;;;;;7.18;3.55;;;3.50;98.00;;;;;;6249141;23;19996;-71
2021/10/15 04:17:09;;;;;;;6.38;3.78;;;3.60;98.00;;;;;;6249267;23;19996;-72
2021/10/15 04:19:37;;;;;;;5.95;2.00;;;3.60;98.00;;;;;;6249400;23;20003;-70
2021/10/15 04:22:11;;;;;;;3.70;2.00;;;3.90;98.00;;;;;;6249658;23;20004;-71
2021/10/15 04:24:38;;;;;;;5.22;1.92;;;4.10;98.00;;;;;;6249216;23;20000;-71
2021/10/15 04:27:04;;;;;;;3.88;2.00;;;4.20;98.00;;;;;;6247814;23;20006;-71
2021/10/15 04:29:29;;;;;;;4.10;2.00;;;4.30;98.00;;;;;;6249499;23;20083;-71
2021/10/15 04:31:55;;;;;;;3.78;2.10;;;4.50;98.00;;;;;;6248560;23;20008;-71
2021/10/15 04:34:21;;;;;;;4.75;2.17;;;4.50;98.00;;;;;;6248978;23;20000;-71
2021/10/15 04:36:46;;;;;;;4.75;2.30;;;4.50;98.00;;;;;;6249148;23;20000;-71
2021/10/15 04:39:12;;;;;;;3.80;2.00;;;4.50;98.00;;;;;;6222524;23;20004;-70
2021/10/15 04:41:38;;;;;;;5.40;1.90;;;4.50;98.00;;;;;;6221990;23;20020;-78
2021/10/15 04:44:04;;;;;;;6.07;2.33;;;4.60;98.00;;;;;;6220967;23;20011;-72
2021/10/15 04:46:33;;;;;;;4.53;2.40;;;4.50;98.00;;;;;;6249729;23;20011;-73
2021/10/15 04:48:59;;;;;;;3.67;2.10;;;4.40;98.00;;;;;;6248925;23;20031;-71
2021/10/15 04:51:25;;;;;;;3.92;2.03;;;4.50;98.00;;;;;;6248196;23;20051;-70
2021/10/15 04:53:50;;;;;;;4.68;2.40;;;4.50;98.00;;;;;;6247941;23;20318;-71
2021/10/15 04:56:16;;;;;;;4.88;2.28;;;4.40;98.00;;;;;;6248524;23;19996;-70
2021/10/15 04:58:42;;;;;;;4.75;1.85;;;4.40;98.00;;;;;;6246361;23;20000;-69
2021/10/15 05:01:07;;;;;;;5.20;2.15;;;4.40;98.00;;;;;;6247709;23;20007;-72
2021/10/15 05:03:33;;;;;;;5.00;2.22;;;4.50;98.00;;;;;;6248775;23;20015;-71
2021/10/15 05:05:59;;;;;;;3.65;1.65;;;4.50;98.00;;;;;;6249588;23;20269;-72
2021/10/15 05:08:30;;;;;;;5.53;1.80;;;4.60;98.00;;;;;;6248029;23;20079;-70
2021/10/15 05:11:03;;;;;;;6.15;1.80;;;4.60;98.00;;;;;;6248688;23;20009;-71
2021/10/15 05:13:29;;;;;;;4.82;2.25;;;4.50;98.00;;;;;;6246185;23;20000;-70
2021/10/15 05:15:55;;;;;;;3.90;1.90;;;4.50;98.00;;;;;;6248621;23;20016;-70
2021/10/15 05:18:21;;;;;;;5.53;1.90;;;4.50;98.00;;;;;;6249050;23;20070;-70
2021/10/15 05:20:47;;;;;;;3.63;1.95;;;4.50;98.00;;;;;;6249278;23;19996;-71
2021/10/15 05:23:13;;;;;;;6.22;2.47;;;4.60;98.00;;;;;;6249287;23;19996;-70
2021/10/15 05:25:42;;;;;;;3.45;1.95;;;4.50;98.00;;;;;;6249338;23;20261;-71
2021/10/15 05:28:08;;;;;;;5.75;2.00;;;4.40;98.00;;;;;;6247648;23;20008;-72
2021/10/15 05:30:34;;;;;;;4.60;1.83;;;4.50;98.00;;;;;;6248883;23;20062;-71
2021/10/15 05:33:00;;;;;;;3.53;2.05;;;4.60;98.00;;;;;;6248624;23;20043;-70
2021/10/15 05:35:28;;;;;;;4.05;1.90;;;4.50;98.00;;;;;;6249093;23;20008;-72
2021/10/15 05:37:54;;;;;;;4.28;2.03;;;4.30;98.00;;;;;;6249259;23;19993;-70
2021/10/15 05:40:20;;;;;;;4.45;2.08;;;4.20;98.00;;;;;;6222319;23;20022;-71
2021/10/15 05:42:47;;;;;;;4.53;2.30;;;4.20;98.00;;;;;;6246873;23;20071;-71
2021/10/15 05:45:14;;;;;;;6.78;2.72;;;4.20;98.00;;;;;;6249430;23;20014;-71
2021/10/15 05:47:40;;;;;;;4.88;2.53;;;4.10;98.00;;;;;;6248090;23;20028;-70
2021/10/15 05:50:08;;;;;;;4.75;2.10;;;4.10;98.00;;;;;;6221312;23;20007;-71
2021/10/15 05:52:39;;;;;;;3.25;1.95;;;4.30;98.00;;;;;;6220359;23;20091;-70
2021/10/15 06:00:01;;;;;;;6.20;1.90;;;4.50;98.00;;;;;;6259157;23;20270;-70
2021/10/15 06:02:32;;;;;;;5.05;1.85;;;4.50;98.00;;;;;;6248663;23;20008;-70
2021/10/15 06:15:50;;;;;;;2.67;1.50;;;5.00;98.00;;;;;;6249960;23;19988;-72
2021/10/15 06:18:20;;;;;;;4.30;1.83;;;5.00;98.00;;;;;;6250528;23;20051;-71
2021/10/15 06:20:46;;;;;;;3.33;1.83;;;5.10;98.00;;;;;;6250485;23;20317;-70
2021/10/15 06:23:12;;;;;;;5.78;2.63;;;5.10;98.00;;;;;;6247767;23;20026;-71
2021/10/15 06:25:38;;;;;;;6.28;2.60;;;5.30;98.00;;;;;;6248838;23;20027;-69
2021/10/15 06:28:05;;;;;;;19.52;11.32;;;5.40;98.00;;;;;;6243290;23;20007;-69
2021/10/15 06:30:34;;;;;;;24.25;11.90;;;5.40;98.00;;;;;;6216209;23;20008;-70
2021/10/15 06:32:59;;;;;;;22.30;14.07;;;5.40;98.00;;;;;;6217173;23;20373;-69
2021/10/15 06:35:25;;;;;;;27.38;15.75;;;5.50;98.00;;;;;;6242798;23;20050;-70
2021/10/15 06:37:54;;;;;;;36.03;17.98;;;5.60;98.00;;;;;;6247060;23;20004;-72
2021/10/15 06:40:19;;;;;;;94.18;47.90;;;5.70;98.00;;;;;;6249874;23;20026;-71
2021/10/15 06:42:46;;;;;;;57.47;28.90;;;5.70;98.00;;;;;;6248778;23;20377;-71
2021/10/15 06:45:12;;;;;;;58.03;30.60;;;5.80;98.00;;;;;;6221897;23;20369;-71
2021/10/15 06:47:37;;;;;;;35.80;18.65;;;5.90;98.00;;;;;;6248567;23;20004;-71
2021/10/15 06:50:04;;;;;;;18.88;9.32;;;6.10;98.00;;;;;;6246535;23;20057;-71
2021/10/15 06:52:36;;;;;;;12.70;6.80;;;6.20;98.00;;;;;;6249070;23;20000;-71
2021/10/15 06:55:08;;;;;;;17.55;8.05;;;6.20;98.00;;;;;;6250761;23;20000;-71
2021/10/15 06:57:33;;;;;;;20.42;11.95;;;6.30;98.00;;;;;;6248538;23;20008;-71
2021/10/15 06:59:59;;;;;;;23.60;13.65;;;6.40;98.00;;;;;;6249460;23;20000;-70
2021/10/15 07:02:24;;;;;;;11.07;6.38;;;6.40;98.00;;;;;;6249166;23;20004;-71
2021/10/15 07:04:53;;;;;;;10.85;6.55;;;6.40;98.00;;;;;;6223909;23;20078;-72
2021/10/15 07:07:18;;;;;;;16.20;11.63;;;6.40;98.00;;;;;;6249648;23;20008;-70
2021/10/15 07:09:44;;;;;;;7.70;5.50;;;6.30;98.00;;;;;;6249740;23;20004;-71
2021/10/15 07:12:13;;;;;;;5.28;2.90;;;6.40;98.00;;;;;;6248983;23;20006;-70
2021/10/15 07:14:41;;;;;;;3.97;2.08;;;6.50;98.00;;;;;;6250262;23;20000;-70
2021/10/15 07:17:06;;;;;;;5.25;2.42;;;6.60;98.00;;;;;;6250431;23;20315;-71
2021/10/15 07:19:32;;;;;;;4.38;2.05;;;6.70;98.00;;;;;;6248414;23;20030;-70
2021/10/15 07:21:58;;;;;;;4.90;1.80;;;6.80;98.00;;;;;;6247821;23;20004;-72
2021/10/15 07:24:23;;;;;;;3.65;1.40;;;7.00;98.00;;;;;;6223933;23;20004;-71
2021/10/15 07:26:49;;;;;;;6.95;1.67;;;7.30;98.00;;;;;;6248010;23;20031;-70
2021/10/15 07:29:15;;;;;;;3.58;1.70;;;7.50;98.00;;;;;;6241765;23;20012;-70
2021/10/15 07:31:40;;;;;;;3.65;1.75;;;7.70;98.00;;;;;;6220009;23;20004;-71
2021/10/15 07:34:08;;;;;;;4.80;2.28;;;7.80;98.00;;;;;;6250554;23;20385;-71
2021/10/15 07:36:33;;;;;;;6.43;2.20;;;7.80;98.00;;;;;;6250592;23;20378;-73
2021/10/15 07:38:59;;;;;;;8.35;2.00;;;8.00;98.00;;;;;;6250071;23;20095;-71
2021/10/15 07:41:25;;;;;;;3.47;1.48;;;8.00;98.00;;;;;;6250487;23;20012;-71
2021/10/15 07:43:51;;;;;;;3.60;1.67;;;8.10;98.00;;;;;;6247728;23;20000;-71
2021/10/15 07:46:19;;;;;;;5.05;1.80;;;8.30;98.00;;;;;;6249640;23;20023;-70
2021/10/15 07:48:48;;;;;;;4.35;2.28;;;8.50;98.00;;;;;;6249600;23;20119;-70
2021/10/15 07:51:14;;;;;;;4.57;2.00;;;8.70;98.00;;;;;;6245877;23;20028;-70
2021/10/15 07:53:40;;;;;;;3.70;1.50;;;9.00;98.00;;;;;;6249748;23;20046;-72
2021/10/15 07:56:05;;;;;;;4.13;1.73;;;9.10;98.00;;;;;;6250019;23;20000;-71
2021/10/15 07:58:31;;;;;;;2.85;1.38;;;9.20;98.00;;;;;;6248193;23;20055;-72
2021/10/15 08:00:57;;;;;;;3.95;1.85;;;9.10;97.80;;;;;;6223313;23;20004;-72
2021/10/15 08:03:22;;;;;;;3.95;2.05;;;9.30;97.30;;;;;;6250108;23;20418;-72
2021/10/15 08:05:48;;;;;;;3.25;1.73;;;9.60;97.20;;;;;;6250029;23;20365;-71
2021/10/15 08:08:14;;;;;;;4.10;1.88;;;10.10;97.30;;;;;;6250235;23;19996;-71
2021/10/15 08:10:39;;;;;;;3.33;1.45;;;11.00;94.50;;;;;;6249817;23;20007;-71
2021/10/15 08:13:05;;;;;;;3.42;1.65;;;12.30;91.90;;;;;;6248341;23;20011;-72
2021/10/15 08:15:31;;;;;;;3.25;1.45;;;14.10;85.90;;;;;;6249776;23;20011;-72
2021/10/15 08:17:58;;;;;;;12.13;7.18;;;15.60;81.20;;;;;;6249852;23;20531;-72
2021/10/15 08:20:27;;;;;;;8.20;5.18;;;16.80;75.80;;;;;;6249986;23;20000;-72
2021/10/15 08:22:53;;;;;;;12.80;7.30;;;18.10;73.50;;;;;;6221495;23;20019;-72
2021/10/15 08:25:19;;;;;;;6.80;3.88;;;18.60;71.00;;;;;;6249810;23;20075;-72
2021/10/15 08:27:45;;;;;;;14.00;9.13;;;19.30;69.90;;;;;;6247785;23;20043;-71
2021/10/15 08:30:11;;;;;;;12.20;7.15;;;19.30;69.70;;;;;;6249662;23;20007;-72
2021/10/15 08:32:37;;;;;;;10.40;5.60;;;20.20;66.90;;;;;;6249897;23;20008;-71
2021/10/15 08:35:05;;;;;;;9.57;4.40;;;21.40;64.90;;;;;;6249007;23;20050;-71
2021/10/15 08:37:31;;;;;;;12.48;6.03;;;21.90;62.60;;;;;;6249899;23;20026;-72
2021/10/15 08:39:57;;;;;;;10.48;6.05;;;21.20;64.50;;;;;;6249209;23;20000;-72
2021/10/15 08:42:26;;;;;;;15.65;6.07;;;20.60;64.50;;;;;;6248454;23;20290;-72
2021/10/15 08:44:52;;;;;;;12.43;6.47;;;21.20;61.50;;;;;;6249409;23;20361;-71
2021/10/15 08:47:17;;;;;;;8.13;4.68;;;21.50;60.90;;;;;;6249531;23;20003;-72
2021/10/15 08:49:45;;;;;;;8.32;4.40;;;21.10;60.40;;;;;;6249719;23;20341;-72
2021/10/15 08:52:14;;;;;;;6.10;2.25;;;20.50;60.40;;;;;;6246256;23;20055;-69
2021/10/15 08:54:43;;;;;;;4.90;1.73;;;20.00;60.30;;;;;;6249219;23;20011;-71
2021/10/15 08:57:10;;;;;;;3.22;1.30;;;19.70;61.00;;;;;;6248573;23;20008;-71
2021/10/15 08:59:47;;;;;;;5.13;1.80;;;19.90;60.10;;;;;;6249297;23;20024;-71
2021/10/15 09:02:17;;;;;;;4.85;2.10;;;19.90;60.30;;;;;;6249451;23;20007;-71
2021/10/15 09:04:56;;;;;;;3.83;1.75;;;20.00;60.70;;;;;;6249724;23;20381;-72
2021/10/15 09:07:27;;;;;;;7.07;2.33;;;20.40;60.10;;;;;;6249240;23;20266;-72
2021/10/15 09:10:18;;;;;;;4.78;2.10;;;20.60;59.60;;;;;;6248604;23;20011;-71
2021/10/15 09:12:47;;;;;;;3.88;1.90;;;20.20;58.50;;;;;;6248541;23;20015;-71
2021/10/15 09:15:14;;;;;;;4.63;2.63;;;19.60;60.20;;;;;;6249310;23;20360;-71
2021/10/15 09:17:51;;;;;;;4.55;1.95;;;19.10;61.60;;;;;;6249326;23;19996;-70
2021/10/15 09:20:34;;;;;;;4.18;2.10;;;19.10;63.80;;;;;;6249669;23;20362;-69
2021/10/15 09:23:00;;;;;;;4.30;2.07;;;19.00;62.50;;;;;;6241933;23;20008;-70
2021/10/15 09:25:35;;;;;;;7.60;2.60;;;18.10;63.70;;;;;;6243904;23;20011;-69
2021/10/15 09:28:01;;;;;;;5.72;2.63;;;17.70;65.70;;;;;;6247775;23;20282;-69
2021/10/15 09:30:29;;;;;;;6.22;2.80;;;17.00;67.00;;;;;;6222257;23;20008;-71
2021/10/15 09:32:57;;;;;;;7.05;2.45;;;16.60;67.50;;;;;;6249292;23;20000;-72
2021/10/15 09:35:26;;;;;;;7.28;2.33;;;15.90;69.90;;;;;;6249281;23;20324;-71
2021/10/15 09:38:05;;;;;;;5.88;2.95;;;15.50;71.50;;;;;;6249233;23;20369;-72
2021/10/15 09:40:45;;;;;;;6.78;2.45;;;15.50;73.20;;;;;;6249250;23;20015;-71
2021/10/15 09:43:13;;;;;;;5.78;2.67;;;16.70;72.40;;;;;;6247669;23;20000;-72
2021/10/15 09:45:45;;;;;;;4.78;2.13;;;17.50;68.90;;;;;;6247835;23;20000;-71
2021/10/15 09:48:24;;;;;;;4.82;2.05;;;18.30;66.90;;;;;;6248693;23;20004;-72
2021/10/15 09:51:16;;;;;;;5.32;2.35;;;18.10;65.60;;;;;;6249971;23;20000;-71
2021/10/15 09:54:14;;;;;;;4.60;2.47;;;18.60;65.00;;;;;;6245484;23;20008;-71
2021/10/15 09:56:53;;;;;;;4.78;2.03;;;18.90;62.60;;;;;;6249577;23;20026;-71
2021/10/15 09:59:19;;;;;;;4.45;2.10;;;19.70;61.20;;;;;;6247151;23;20123;-70
2021/10/15 10:01:45;;;;;;;4.35;1.85;;;18.70;61.30;;;;;;6249260;23;20003;-70
2021/10/15 10:04:13;;;;;;;5.75;2.38;;;18.20;63.30;;;;;;6248559;23;20004;-71
2021/10/15 10:06:39;;;;;;;5.03;2.30;;;19.00;62.20;;;;;;6249162;23;20306;-71
2021/10/15 10:09:09;;;;;;;4.82;2.17;;;19.00;63.20;;;;;;6248705;23;20004;-71
2021/10/15 10:11:39;;;;;;;4.53;2.40;;;19.00;62.90;;;;;;6221402;23;20004;-71
2021/10/15 10:14:05;;;;;;;4.75;2.20;;;18.70;63.00;;;;;;6246871;23;20007;-71
2021/10/15 10:16:32;;;;;;;4.90;2.60;;;18.60;63.40;;;;;;6248566;23;20004;-71
2021/10/15 10:19:02;;;;;;;4.88;2.65;;;18.90;62.40;;;;;;6221555;23;20413;-69
2021/10/15 10:21:33;;;;;;;4.10;1.90;;;18.90;62.40;;;;;;6247573;23;20008;-70
2021/10/15 10:24:04;;;;;;;4.45;2.30;;;18.80;62.00;;;;;;6246113;23;20010;-70
2021/10/15 10:26:43;;;;;;;4.95;2.55;;;18.70;62.10;;;;;;6247527;23;20373;-70
2021/10/15 10:29:09;;;;;;;6.90;2.50;;;18.60;63.30;;;;;;6245233;23;20008;-70
2021/10/15 10:31:35;;;;;;;4.60;2.00;;;18.40;63.50;;;;;;6246268;23;20014;-70
2021/10/15 10:34:04;;;;;;;4.25;2.00;;;18.20;64.10;;;;;;6247320;23;20020;-70
2021/10/15 10:36:32;;;;;;;4.32;2.20;;;17.90;64.70;;;;;;6247016;23;20053;-70
2021/10/15 10:39:17;;;;;;;5.57;2.63;;;17.60;64.80;;;;;;6247672;23;20008;-69
2021/10/15 10:42:14;;;;;;;5.43;2.40;;;17.10;66.00;;;;;;6247003;23;20024;-70
2021/10/15 10:44:48;;;;;;;5.50;3.17;;;16.40;68.10;;;;;;6246953;23;20007;-71
2021/10/15 10:47:19;;;;;;;5.32;2.60;;;15.80;70.00;;;;;;6247108;23;20004;-70
2021/10/15 10:50:09;;;;;;;6.40;2.90;;;16.10;70.50;;;;;;6246349;23;20004;-70
2021/10/15 10:52:58;;;;;;;6.72;2.83;;;17.20;68.50;;;;;;6221722;23;20012;-71
2021/10/15 10:55:47;;;;;;;6.68;2.50;;;18.30;66.60;;;;;;6249376;23;19996;-71
2021/10/15 10:58:33;;;;;;;6.82;2.95;;;19.00;64.00;;;;;;6241054;23;20004;-70
2021/10/15 11:01:28;;;;;;;7.35;3.58;;;18.80;63.90;;;;;;6244798;23;20008;-70
2021/10/15 11:03:55;;;;;;;9.02;3.70;;;18.60;65.40;;;;;;6243976;23;20081;-70
2021/10/15 11:06:22;;;;;;;6.43;2.92;;;18.70;65.10;;;;;;6248155;23;20307;-70
2021/10/15 11:08:51;;;;;;;4.95;2.72;;;19.20;65.70;;;;;;6247484;23;20036;-69
2021/10/15 11:11:22;;;;;;;5.65;2.25;;;18.90;65.20;;;;;;6247649;23;20103;-70
2021/10/15 11:13:51;;;;;;;6.97;2.53;;;18.40;66.00;;;;;;6247455;23;20000;-70
2021/10/15 11:16:21;;;;;;;6.65;3.38;;;18.60;66.80;;;;;;6249968;23;20051;-70
2021/10/15 11:18:47;;;;;;;7.50;3.17;;;18.80;65.60;;;;;;6249346;23;20370;-70
2021/10/15 11:21:13;;;;;;;8.02;3.25;;;18.90;65.20;;;;;;6222350;23;20074;-70
2021/10/15 11:23:39;;;;;;;6.60;3.30;;;18.70;65.80;;;;;;6244768;23;20390;-70
2021/10/15 11:26:06;;;;;;;4.90;2.90;;;19.10;65.30;;;;;;6217508;23;20008;-70
2021/10/15 11:28:31;;;;;;;12.25;4.28;;;18.70;66.60;;;;;;6249444;23;20014;-70
2021/10/15 11:30:58;;;;;;;7.63;3.75;;;18.50;67.20;;;;;;6250664;23;20067;-70
2021/10/15 11:33:27;;;;;;;6.13;3.30;;;18.40;66.60;;;;;;6250395;23;20004;-70
2021/10/15 11:35:54;;;;;;;9.43;3.10;;;18.30;67.60;;;;;;6250604;23;20071;-69
2021/10/15 11:38:26;;;;;;;6.03;3.10;;;18.40;67.60;;;;;;6250373;23;20370;-70
2021/10/15 11:40:59;;;;;;;7.50;3.10;;;18.30;66.80;;;;;;6250061;23;20016;-70
2021/10/15 11:43:26;;;;;;;6.25;2.85;;;18.30;66.20;;;;;;6248970;23;20000;-70
2021/10/15 11:46:02;;;;;;;5.78;2.60;;;18.70;68.10;;;;;;6250211;23;20023;-70
2021/10/15 11:48:37;;;;;;;7.38;3.00;;;18.90;66.50;;;;;;6249804;23;20050;-70
2021/10/15 11:51:11;;;;;;;7.60;2.60;;;19.20;66.30;;;;;;6250601;23;20000;-70
2021/10/15 11:53:43;;;;;;;5.35;2.30;;;19.10;65.90;;;;;;6249571;23;20063;-70
2021/10/15 11:56:14;;;;;;;5.07;2.20;;;19.10;65.40;;;;;;6250374;23;20027;-70
2021/10/15 11:58:42;;;;;;;7.72;2.33;;;18.70;63.90;;;;;;6244739;23;20318;-70
2021/10/15 12:01:10;;;;;;;4.55;2.20;;;18.50;64.70;;;;;;6249141;23;20026;-70
2021/10/15 12:03:37;;;;;;;5.07;2.25;;;19.10;65.00;;;;;;6250481;23;19996;-70
2021/10/15 12:06:25;;;;;;;5.45;2.35;;;19.40;64.00;;;;;;6250112;23;20002;-70
2021/10/15 12:09:11;;;;;;;4.97;2.15;;;18.70;65.00;;;;;;6250322;23;20003;-70
2021/10/15 12:11:38;;;;;;;4.40;2.60;;;17.80;67.20;;;;;;6223929;23;20000;-70
2021/10/15 12:14:28;;;;;;;5.65;2.50;;;17.40;69.10;;;;;;6248990;23;20004;-69
2021/10/15 12:16:55;;;;;;;5.88;2.50;;;17.60;67.60;;;;;;6232036;23;20004;-69
2021/10/15 12:19:30;;;;;;;4.55;2.50;;;17.80;66.50;;;;;;6223391;23;20007;-70
2021/10/15 12:21:56;;;;;;;6.30;3.03;;;17.70;67.60;;;;;;6248918;23;20005;-69
2021/10/15 12:24:38;;;;;;;5.47;2.75;;;17.50;67.50;;;;;;6249274;23;20261;-69
2021/10/15 12:27:10;;;;;;;5.10;2.50;;;17.80;67.10;;;;;;6249112;23;20004;-70
2021/10/15 12:29:42;;;;;;;4.68;2.40;;;18.40;65.90;;;;;;6222602;23;20121;-71
2021/10/15 12:32:09;;;;;;;4.88;2.50;;;18.50;65.30;;;;;;6249744;23;20273;-71
2021/10/15 12:34:57;;;;;;;5.35;2.65;;;18.30;66.00;;;;;;6249667;23;20006;-70
2021/10/15 12:37:35;;;;;;;5.65;2.63;;;18.00;66.30;;;;;;6250138;23;20262;-70
2021/10/15 12:40:32;;;;;;;5.22;2.70;;;18.20;65.70;;;;;;6249641;23;20023;-70
2021/10/15 12:43:06;;;;;;;11.10;3.13;;;18.10;64.70;;;;;;6248841;23;20054;-70
2021/10/15 12:45:32;;;;;;;5.65;2.45;;;17.60;66.00;;;;;;6249281;23;20427;-71
2021/10/15 12:48:19;;;;;;;4.53;2.13;;;17.60;66.50;;;;;;6249721;23;20038;-70
2021/10/15 12:51:03;;;;;;;4.25;2.20;;;17.70;67.40;;;;;;6223085;23;20083;-70
2021/10/15 12:53:40;;;;;;;6.30;2.90;;;17.70;67.60;;;;;;6245761;23;20247;-70
2021/10/15 12:56:18;;;;;;;5.25;2.42;;;17.50;67.20;;;;;;6249622;23;20265;-70
2021/10/15 12:58:51;;;;;;;6.22;2.28;;;17.50;67.20;;;;;;6248416;23;20001;-71
2021/10/15 13:01:35;;;;;;;6.32;2.38;;;17.40;67.30;;;;;;6249041;23;20096;-70
2021/10/15 13:04:01;;;;;;;5.22;2.50;;;17.60;68.10;;;;;;6249515;23;20074;-71
2021/10/15 13:06:28;;;;;;;4.70;2.30;;;17.70;67.80;;;;;;6248878;23;20007;-71
2021/10/15 13:08:56;;;;;;;4.50;2.03;;;17.90;67.20;;;;;;6249901;23;20004;-70
2021/10/15 13:11:24;;;;;;;4.70;2.40;;;18.40;66.40;;;;;;6249338;23;20266;-70
2021/10/15 13:13:52;;;;;;;4.20;2.00;;;18.20;66.20;;;;;;6247957;23;20074;-71
2021/10/15 13:16:18;;;;;;;3.58;1.70;;;17.60;66.20;;;;;;6249473;23;19996;-70
2021/10/15 13:18:45;;;;;;;4.32;1.85;;;17.10;66.20;;;;;;6223138;23;20083;-70